sensor_id;sensor_type;location;lat;lon;timestamp;pressure;altitude;pressure_sealevel;temperature;humidity
3812;BME280;1921;49.368;11.068;2023-04-23T00:01:06;97026.28;;;16.29;67.47
3812;BME280;1921;49.368;11.068;2023-04-23T00:03:34;96857.34;;;15.26;67.53
3812;BME280;1921;49.368;11.068;2023-04-23T00:06:05;97000.97;;;16.16;68.49
3812;BME280;1921;49.368;11.068;2023-04-23T00:08:33;97011.72;;;16.26;68.32
3812;BME280;1921;49.368;11.068;2023-04-23T00:10:59;96924.41;;;15.71;67.85
3812;BME280;1921;49.368;11.068;2023-04-23T00:13:25;96992.41;;;16.09;68.29
3812;BME280;1921;49.368;11.068;2023-04-23T00:15:51;96951.44;;;15.78;68.90
3812;BME280;1921;49.368;11.068;2023-04-23T00:18:17;96969.25;;;15.87;69.39
3812;BME280;1921;49.368;11.068;2023-04-23T00:20:43;96953.34;;;15.71;69.28
3812;BME280;1921;49.368;11.068;2023-04-23T00:23:10;96950.38;;;15.67;69.36
3812;BME280;1921;49.368;11.068;2023-04-23T00:25:35;96982.75;;;15.79;69.16
3812;BME280;1921;49.368;11.068;2023-04-23T00:28:02;96956.75;;;15.71;69.27
3812;BME280;1921;49.368;11.068;2023-04-23T00:30:27;96954.47;;;15.63;69.55
3812;BME280;1921;49.368;11.068;2023-04-23T00:32:53;96892.66;;;15.30;69.62
3812;BME280;1921;49.368;11.068;2023-04-23T00:35:19;96960.53;;;15.75;69.62
3812;BME280;1921;49.368;11.068;2023-04-23T00:37:45;97000.59;;;16.01;69.81
3812;BME280;1921;49.368;11.068;2023-04-23T00:40:11;96965.13;;;15.80;69.18
3812;BME280;1921;49.368;11.068;2023-04-23T00:42:38;97000.59;;;16.01;69.12
3812;BME280;1921;49.368;11.068;2023-04-23T00:45:06;96974.25;;;15.77;68.73
3812;BME280;1921;49.368;11.068;2023-04-23T00:47:34;96951.50;;;15.71;68.43
3812;BME280;1921;49.368;11.068;2023-04-23T00:50:01;96999.81;;;16.00;68.16
3812;BME280;1921;49.368;11.068;2023-04-23T00:52:27;96957.25;;;15.80;68.13
3812;BME280;1921;49.368;11.068;2023-04-23T00:54:54;96925.53;;;15.63;68.20
3812;BME280;1921;49.368;11.068;2023-04-23T00:57:21;96937.91;;;15.74;67.91
3812;BME280;1921;49.368;11.068;2023-04-23T00:59:47;96951.41;;;15.89;67.57
3812;BME280;1921;49.368;11.068;2023-04-23T01:02:13;96990.66;;;16.14;67.82
3812;BME280;1921;49.368;11.068;2023-04-23T01:04:42;96966.53;;;15.94;67.41
3812;BME280;1921;49.368;11.068;2023-04-23T01:07:10;97009.78;;;16.10;68.07
3812;BME280;1921;49.368;11.068;2023-04-23T01:09:37;97008.06;;;16.04;68.23
3812;BME280;1921;49.368;11.068;2023-04-23T01:12:05;96956.41;;;15.68;68.45
3812;BME280;1921;49.368;11.068;2023-04-23T01:14:32;97012.16;;;16.00;68.62
3812;BME280;1921;49.368;11.068;2023-04-23T01:16:57;96978.94;;;15.75;69.68
3812;BME280;1921;49.368;11.068;2023-04-23T01:19:23;96963.38;;;15.62;69.57
3812;BME280;1921;49.368;11.068;2023-04-23T01:21:50;96964.75;;;15.65;69.16
3812;BME280;1921;49.368;11.068;2023-04-23T01:24:16;96953.97;;;15.54;69.01
3812;BME280;1921;49.368;11.068;2023-04-23T01:26:41;96946.31;;;15.53;69.04
3812;BME280;1921;49.368;11.068;2023-04-23T01:29:08;96972.88;;;15.63;69.04
3812;BME280;1921;49.368;11.068;2023-04-23T01:31:34;96812.97;;;14.65;69.73
3812;BME280;1921;49.368;11.068;2023-04-23T01:34:01;97010.63;;;15.80;69.23
3812;BME280;1921;49.368;11.068;2023-04-23T01:36:27;96964.47;;;15.54;69.51
3812;BME280;1921;49.368;11.068;2023-04-23T01:38:53;96940.88;;;15.36;69.73
3812;BME280;1921;49.368;11.068;2023-04-23T01:41:18;96971.44;;;15.49;69.71
3812;BME280;1921;49.368;11.068;2023-04-23T01:43:44;96955.25;;;15.33;69.57
3812;BME280;1921;49.368;11.068;2023-04-23T01:46:11;97007.47;;;15.60;69.54
3812;BME280;1921;49.368;11.068;2023-04-23T01:48:37;96939.63;;;15.08;70.62
3812;BME280;1921;49.368;11.068;2023-04-23T01:51:03;96979.78;;;15.27;70.57
3812;BME280;1921;49.368;11.068;2023-04-23T01:53:28;96951.06;;;15.14;70.67
3812;BME280;1921;49.368;11.068;2023-04-23T01:55:55;96946.72;;;15.08;70.40
3812;BME280;1921;49.368;11.068;2023-04-23T01:58:22;96929.09;;;14.97;70.83
3812;BME280;1921;49.368;11.068;2023-04-23T02:00:49;96977.06;;;15.22;71.24
3812;BME280;1921;49.368;11.068;2023-04-23T02:03:15;96960.69;;;15.20;71.31
3812;BME280;1921;49.368;11.068;2023-04-23T02:05:43;96961.16;;;15.17;71.07
3812;BME280;1921;49.368;11.068;2023-04-23T02:08:10;96970.75;;;15.23;70.35
3812;BME280;1921;49.368;11.068;2023-04-23T02:10:36;96992.41;;;15.37;70.49
3812;BME280;1921;49.368;11.068;2023-04-23T02:13:02;97004.66;;;15.43;70.82
3812;BME280;1921;49.368;11.068;2023-04-23T02:15:28;96972.31;;;15.13;71.25
3812;BME280;1921;49.368;11.068;2023-04-23T02:17:54;96983.09;;;15.23;71.06
3812;BME280;1921;49.368;11.068;2023-04-23T02:20:20;96966.50;;;15.11;70.70
3812;BME280;1921;49.368;11.068;2023-04-23T02:22:47;96999.91;;;15.33;70.50
3812;BME280;1921;49.368;11.068;2023-04-23T02:25:14;96955.69;;;15.00;70.72
3812;BME280;1921;49.368;11.068;2023-04-23T02:27:40;96963.34;;;15.02;70.34
3812;BME280;1921;49.368;11.068;2023-04-23T02:30:08;97000.94;;;15.32;70.86
3812;BME280;1921;49.368;11.068;2023-04-23T02:32:35;96988.44;;;15.16;70.33
3812;BME280;1921;49.368;11.068;2023-04-23T02:35:02;96996.88;;;15.18;70.36
3812;BME280;1921;49.368;11.068;2023-04-23T02:37:28;96979.38;;;15.12;70.34
3812;BME280;1921;49.368;11.068;2023-04-23T02:39:53;96982.81;;;15.13;71.14
3812;BME280;1921;49.368;11.068;2023-04-23T02:42:19;97024.44;;;15.27;71.71
3812;BME280;1921;49.368;11.068;2023-04-23T02:44:45;96983.56;;;15.01;71.75
3812;BME280;1921;49.368;11.068;2023-04-23T02:47:10;96994.13;;;15.13;71.26
3812;BME280;1921;49.368;11.068;2023-04-23T02:49:36;96884.03;;;14.45;71.46
3812;BME280;1921;49.368;11.068;2023-04-23T02:52:02;96983.69;;;15.06;70.83
3812;BME280;1921;49.368;11.068;2023-04-23T02:54:28;97023.06;;;15.25;70.56
3812;BME280;1921;49.368;11.068;2023-04-23T02:56:54;96960.59;;;14.97;70.66
3812;BME280;1921;49.368;11.068;2023-04-23T02:59:19;96996.59;;;15.08;70.47
3812;BME280;1921;49.368;11.068;2023-04-23T03:01:45;96992.38;;;15.07;70.55
3812;BME280;1921;49.368;11.068;2023-04-23T03:04:11;96977.06;;;15.04;70.26
3812;BME280;1921;49.368;11.068;2023-04-23T03:06:36;96996.19;;;15.11;70.12
3812;BME280;1921;49.368;11.068;2023-04-23T03:09:02;96999.38;;;15.13;69.77
3812;BME280;1921;49.368;11.068;2023-04-23T03:11:29;96995.22;;;15.05;69.52
3812;BME280;1921;49.368;11.068;2023-04-23T03:13:55;97002.88;;;15.07;69.41
3812;BME280;1921;49.368;11.068;2023-04-23T03:16:21;96972.00;;;14.91;69.40
3812;BME280;1921;49.368;11.068;2023-04-23T03:18:46;97012.97;;;15.10;69.04
3812;BME280;1921;49.368;11.068;2023-04-23T03:21:12;97001.00;;;14.96;69.52
3812;BME280;1921;49.368;11.068;2023-04-23T03:23:38;97002.63;;;14.97;69.44
3812;BME280;1921;49.368;11.068;2023-04-23T03:26:04;97004.06;;;14.93;69.56
3812;BME280;1921;49.368;11.068;2023-04-23T03:28:30;96944.72;;;14.55;69.58
3812;BME280;1921;49.368;11.068;2023-04-23T03:30:56;97005.53;;;14.89;69.48
3812;BME280;1921;49.368;11.068;2023-04-23T03:33:21;97012.59;;;14.88;69.78
3812;BME280;1921;49.368;11.068;2023-04-23T03:35:47;97026.25;;;14.97;70.07
3812;BME280;1921;49.368;11.068;2023-04-23T03:38:13;97046.72;;;15.06;70.24
3812;BME280;1921;49.368;11.068;2023-04-23T03:40:39;97004.28;;;14.73;70.53
3812;BME280;1921;49.368;11.068;2023-04-23T03:43:04;96996.84;;;14.70;70.35
3812;BME280;1921;49.368;11.068;2023-04-23T03:45:31;97043.94;;;15.01;70.54
3812;BME280;1921;49.368;11.068;2023-04-23T03:47:56;97014.50;;;14.81;70.90
3812;BME280;1921;49.368;11.068;2023-04-23T03:50:22;97003.34;;;14.67;71.25
3812;BME280;1921;49.368;11.068;2023-04-23T03:52:48;97041.13;;;14.85;71.70
3812;BME280;1921;49.368;11.068;2023-04-23T03:55:14;97022.06;;;14.71;72.51
3812;BME280;1921;49.368;11.068;2023-04-23T03:57:40;97005.22;;;14.60;72.23
3812;BME280;1921;49.368;11.068;2023-04-23T04:00:06;97073.34;;;14.92;73.03
3812;BME280;1921;49.368;11.068;2023-04-23T04:02:39;97034.03;;;14.67;73.14
3812;BME280;1921;49.368;11.068;2023-04-23T04:05:06;97024.81;;;14.58;73.89
3812;BME280;1921;49.368;11.068;2023-04-23T04:07:31;97058.69;;;14.66;74.55
3812;BME280;1921;49.368;11.068;2023-04-23T04:09:58;97051.50;;;14.54;74.45
3812;BME280;1921;49.368;11.068;2023-04-23T04:12:24;97082.06;;;14.67;74.94
3812;BME280;1921;49.368;11.068;2023-04-23T04:14:50;97059.09;;;14.63;75.32
3812;BME280;1921;49.368;11.068;2023-04-23T04:17:15;97070.69;;;14.55;76.00
3812;BME280;1921;49.368;11.068;2023-04-23T04:19:41;97047.56;;;14.39;76.08
3812;BME280;1921;49.368;11.068;2023-04-23T04:22:08;97036.81;;;14.22;76.93
3812;BME280;1921;49.368;11.068;2023-04-23T04:24:34;97077.53;;;14.56;76.57
3812;BME280;1921;49.368;11.068;2023-04-23T04:27:01;96955.38;;;13.67;77.21
3812;BME280;1921;49.368;11.068;2023-04-23T04:29:27;97063.88;;;14.41;77.50
3812;BME280;1921;49.368;11.068;2023-04-23T04:31:53;97060.69;;;14.39;77.61
3812;BME280;1921;49.368;11.068;2023-04-23T04:34:20;97023.97;;;14.14;77.76
3812;BME280;1921;49.368;11.068;2023-04-23T04:36:45;97076.59;;;14.44;77.81
3812;BME280;1921;49.368;11.068;2023-04-23T04:39:12;97051.31;;;14.24;78.29
3812;BME280;1921;49.368;11.068;2023-04-23T04:41:42;97046.06;;;14.24;78.18
3812;BME280;1921;49.368;11.068;2023-04-23T04:44:08;97054.06;;;14.36;78.18
3812;BME280;1921;49.368;11.068;2023-04-23T04:46:34;97047.91;;;14.24;78.96
3812;BME280;1921;49.368;11.068;2023-04-23T04:49:09;97081.88;;;14.37;79.37
3812;BME280;1921;49.368;11.068;2023-04-23T04:51:39;97066.03;;;14.25;79.71
3812;BME280;1921;49.368;11.068;2023-04-23T04:54:06;97057.78;;;14.22;80.00
3812;BME280;1921;49.368;11.068;2023-04-23T04:56:35;97088.31;;;14.41;80.77
3812;BME280;1921;49.368;11.068;2023-04-23T04:59:01;97065.47;;;14.23;80.67
3812;BME280;1921;49.368;11.068;2023-04-23T05:01:28;97123.16;;;14.55;80.63
3812;BME280;1921;49.368;11.068;2023-04-23T05:03:55;97064.66;;;14.23;80.75
3812;BME280;1921;49.368;11.068;2023-04-23T05:06:21;97088.75;;;14.38;80.61
3812;BME280;1921;49.368;11.068;2023-04-23T05:08:47;97056.56;;;14.24;80.63
3812;BME280;1921;49.368;11.068;2023-04-23T05:11:17;97114.09;;;14.51;81.22
3812;BME280;1921;49.368;11.068;2023-04-23T05:13:44;97105.22;;;14.45;81.70
3812;BME280;1921;49.368;11.068;2023-04-23T05:16:10;97120.66;;;14.35;82.67
3812;BME280;1921;49.368;11.068;2023-04-23T05:18:37;97117.47;;;14.26;85.06
3812;BME280;1921;49.368;11.068;2023-04-23T05:21:03;97128.22;;;14.18;87.57
3812;BME280;1921;49.368;11.068;2023-04-23T05:23:31;97058.63;;;13.53;89.26
3812;BME280;1921;49.368;11.068;2023-04-23T05:26:06;97089.44;;;13.57;90.89
3812;BME280;1921;49.368;11.068;2023-04-23T05:28:32;97047.06;;;13.15;92.39
3812;BME280;1921;49.368;11.068;2023-04-23T05:30:58;97145.25;;;13.64;93.26
3812;BME280;1921;49.368;11.068;2023-04-23T05:33:25;97057.81;;;12.94;93.88
3812;BME280;1921;49.368;11.068;2023-04-23T05:35:51;97020.59;;;12.79;94.72
3812;BME280;1921;49.368;11.068;2023-04-23T05:38:17;97013.00;;;12.71;94.99
3812;BME280;1921;49.368;11.068;2023-04-23T05:40:43;97094.59;;;13.19;95.16
3812;BME280;1921;49.368;11.068;2023-04-23T05:43:14;97095.00;;;13.23;95.77
3812;BME280;1921;49.368;11.068;2023-04-23T05:48:46;97069.28;;;13.06;96.87
3812;BME280;1921;49.368;11.068;2023-04-23T05:51:30;97151.31;;;13.58;96.50
3812;BME280;1921;49.368;11.068;2023-04-23T05:54:04;97028.44;;;12.92;96.77
3812;BME280;1921;49.368;11.068;2023-04-23T05:57:04;97154.66;;;13.79;97.13
3812;BME280;1921;49.368;11.068;2023-04-23T05:59:36;97028.44;;;12.92;97.25
3812;BME280;1921;49.368;11.068;2023-04-23T06:02:03;97014.53;;;12.91;97.54
3812;BME280;1921;49.368;11.068;2023-04-23T06:04:28;97117.53;;;13.37;97.26
3812;BME280;1921;49.368;11.068;2023-04-23T06:06:54;96949.69;;;12.49;96.88
3812;BME280;1921;49.368;11.068;2023-04-23T06:09:23;97006.38;;;12.68;97.31
3812;BME280;1921;49.368;11.068;2023-04-23T06:11:51;96889.88;;;11.94;97.02
3812;BME280;1921;49.368;11.068;2023-04-23T06:14:21;96967.16;;;12.48;97.93
3812;BME280;1921;49.368;11.068;2023-04-23T06:16:47;97083.72;;;13.15;98.42
3812;BME280;1921;49.368;11.068;2023-04-23T06:19:12;97118.31;;;13.44;98.87
3812;BME280;1921;49.368;11.068;2023-04-23T06:21:38;97191.97;;;13.81;99.04
3812;BME280;1921;49.368;11.068;2023-04-23T06:24:05;96966.56;;;12.46;99.06
3812;BME280;1921;49.368;11.068;2023-04-23T06:26:32;97058.22;;;13.04;99.25
3812;BME280;1921;49.368;11.068;2023-04-23T06:28:58;96990.69;;;12.61;99.51
3812;BME280;1921;49.368;11.068;2023-04-23T06:31:24;96904.53;;;12.02;100.00
3812;BME280;1921;49.368;11.068;2023-04-23T06:33:50;96990.47;;;12.70;100.00
3812;BME280;1921;49.368;11.068;2023-04-23T06:36:16;97092.56;;;13.34;100.00
3812;BME280;1921;49.368;11.068;2023-04-23T06:38:42;97097.84;;;13.14;99.91
3812;BME280;1921;49.368;11.068;2023-04-23T06:41:10;96869.94;;;11.80;100.00
3812;BME280;1921;49.368;11.068;2023-04-23T06:43:36;96963.56;;;12.49;100.00
3812;BME280;1921;49.368;11.068;2023-04-23T06:46:01;96929.41;;;12.31;100.00
3812;BME280;1921;49.368;11.068;2023-04-23T06:48:27;97136.88;;;13.42;100.00
3812;BME280;1921;49.368;11.068;2023-04-23T06:50:53;97075.69;;;13.24;100.00
3812;BME280;1921;49.368;11.068;2023-04-23T06:53:20;97007.38;;;12.74;100.00
3812;BME280;1921;49.368;11.068;2023-04-23T06:55:46;96946.69;;;12.38;100.00
3812;BME280;1921;49.368;11.068;2023-04-23T06:58:17;96975.19;;;12.53;100.00
3812;BME280;1921;49.368;11.068;2023-04-23T07:00:43;97042.31;;;12.99;100.00
3812;BME280;1921;49.368;11.068;2023-04-23T07:03:09;96993.72;;;12.45;100.00
3812;BME280;1921;49.368;11.068;2023-04-23T07:05:38;97138.44;;;13.57;100.00
3812;BME280;1921;49.368;11.068;2023-04-23T07:08:10;97013.78;;;12.78;100.00
3812;BME280;1921;49.368;11.068;2023-04-23T07:10:36;97091.13;;;13.45;100.00
3812;BME280;1921;49.368;11.068;2023-04-23T07:13:02;97013.69;;;13.11;100.00
3812;BME280;1921;49.368;11.068;2023-04-23T07:15:27;97047.78;;;13.49;100.00
3812;BME280;1921;49.368;11.068;2023-04-23T07:17:53;96952.13;;;12.95;100.00
3812;BME280;1921;49.368;11.068;2023-04-23T07:20:19;96985.44;;;13.19;100.00
3812;BME280;1921;49.368;11.068;2023-04-23T07:22:45;97054.91;;;13.73;99.96
3812;BME280;1921;49.368;11.068;2023-04-23T07:25:12;96704.44;;;11.54;99.36
3812;BME280;1921;49.368;11.068;2023-04-23T07:27:38;97057.69;;;13.79;99.75
3812;BME280;1921;49.368;11.068;2023-04-23T07:30:04;97107.59;;;14.28;100.00
3812;BME280;1921;49.368;11.068;2023-04-23T07:32:30;96850.44;;;12.67;99.44
3812;BME280;1921;49.368;11.068;2023-04-23T07:34:56;96995.13;;;13.89;98.31
3812;BME280;1921;49.368;11.068;2023-04-23T07:37:22;96924.94;;;13.34;97.20
3812;BME280;1921;49.368;11.068;2023-04-23T07:39:48;97024.66;;;14.27;97.84
3812;BME280;1921;49.368;11.068;2023-04-23T07:42:13;96994.72;;;14.60;97.80
3812;BME280;1921;49.368;11.068;2023-04-23T07:44:39;96913.09;;;14.50;97.09
3812;BME280;1921;49.368;11.068;2023-04-23T07:47:05;97066.25;;;15.66;93.36
3812;BME280;1921;49.368;11.068;2023-04-23T07:49:31;96942.09;;;14.73;91.50
3812;BME280;1921;49.368;11.068;2023-04-23T07:51:56;97031.53;;;15.75;89.82
3812;BME280;1921;49.368;11.068;2023-04-23T07:54:22;96872.16;;;14.79;90.11
3812;BME280;1921;49.368;11.068;2023-04-23T07:56:48;96895.97;;;14.96;87.94
3812;BME280;1921;49.368;11.068;2023-04-23T07:59:14;97115.09;;;16.57;86.94
3812;BME280;1921;49.368;11.068;2023-04-23T08:01:40;97006.91;;;16.00;87.23
3812;BME280;1921;49.368;11.068;2023-04-23T08:04:06;97011.47;;;15.93;86.66
3812;BME280;1921;49.368;11.068;2023-04-23T08:06:32;96954.16;;;15.41;84.60
3812;BME280;1921;49.368;11.068;2023-04-23T08:09:00;96987.00;;;15.32;84.38
3812;BME280;1921;49.368;11.068;2023-04-23T08:11:31;96932.47;;;14.67;86.68
3812;BME280;1921;49.368;11.068;2023-04-23T08:13:57;97133.75;;;15.83;88.63
3812;BME280;1921;49.368;11.068;2023-04-23T08:16:23;96823.44;;;13.80;89.47
3812;BME280;1921;49.368;11.068;2023-04-23T08:18:49;96909.94;;;14.41;90.86
3812;BME280;1921;49.368;11.068;2023-04-23T08:21:15;96962.81;;;14.38;89.50
3812;BME280;1921;49.368;11.068;2023-04-23T08:23:40;96911.78;;;13.97;91.07
3812;BME280;1921;49.368;11.068;2023-04-23T08:26:06;96791.13;;;13.17;92.11
3812;BME280;1921;49.368;11.068;2023-04-23T08:28:32;96934.75;;;14.20;93.43
3812;BME280;1921;49.368;11.068;2023-04-23T08:30:57;97060.66;;;15.07;93.74
3812;BME280;1921;49.368;11.068;2023-04-23T08:33:23;97026.28;;;15.08;93.91
3812;BME280;1921;49.368;11.068;2023-04-23T08:35:49;97046.59;;;15.50;93.52
3812;BME280;1921;49.368;11.068;2023-04-23T08:38:15;97097.78;;;15.96;89.41
3812;BME280;1921;49.368;11.068;2023-04-23T08:40:41;97048.72;;;15.89;88.60
3812;BME280;1921;49.368;11.068;2023-04-23T08:43:18;96971.81;;;16.18;86.59
3812;BME280;1921;49.368;11.068;2023-04-23T08:45:47;97008.00;;;17.21;81.24
3812;BME280;1921;49.368;11.068;2023-04-23T08:48:13;97076.53;;;18.52;78.56
3812;BME280;1921;49.368;11.068;2023-04-23T08:50:42;97070.06;;;19.59;67.68
3812;BME280;1921;49.368;11.068;2023-04-23T08:53:08;97064.66;;;19.54;63.61
3812;BME280;1921;49.368;11.068;2023-04-23T08:55:34;97019.44;;;18.85;68.19
3812;BME280;1921;49.368;11.068;2023-04-23T08:58:03;97057.03;;;18.92;70.00
3812;BME280;1921;49.368;11.068;2023-04-23T09:00:31;97091.97;;;19.37;71.10
3812;BME280;1921;49.368;11.068;2023-04-23T09:02:58;97054.00;;;19.22;67.53
3812;BME280;1921;49.368;11.068;2023-04-23T09:05:25;97123.34;;;19.29;66.67
3812;BME280;1921;49.368;11.068;2023-04-23T09:07:52;97088.84;;;18.80;66.77
3812;BME280;1921;49.368;11.068;2023-04-23T09:10:18;97015.78;;;18.35;67.30
3812;BME280;1921;49.368;11.068;2023-04-23T09:12:45;97102.59;;;18.99;68.76
3812;BME280;1921;49.368;11.068;2023-04-23T09:15:12;97071.22;;;18.86;68.60
3812;BME280;1921;49.368;11.068;2023-04-23T09:17:43;97086.31;;;19.07;65.94
3812;BME280;1921;49.368;11.068;2023-04-23T09:20:11;97035.69;;;18.76;65.30
3812;BME280;1921;49.368;11.068;2023-04-23T09:22:50;97089.13;;;19.00;66.46
3812;BME280;1921;49.368;11.068;2023-04-23T09:25:22;97078.34;;;18.68;64.06
3812;BME280;1921;49.368;11.068;2023-04-23T09:27:51;97052.66;;;18.30;64.74
3812;BME280;1921;49.368;11.068;2023-04-23T09:30:18;97063.63;;;18.22;67.33
3812;BME280;1921;49.368;11.068;2023-04-23T09:32:45;97069.78;;;18.27;67.10
3812;BME280;1921;49.368;11.068;2023-04-23T09:35:16;97069.78;;;18.27;66.48
3812;BME280;1921;49.368;11.068;2023-04-23T09:37:47;97049.41;;;18.40;65.19
3812;BME280;1921;49.368;11.068;2023-04-23T09:40:24;97060.97;;;18.89;63.15
3812;BME280;1921;49.368;11.068;2023-04-23T09:42:51;97036.84;;;19.02;63.08
3812;BME280;1921;49.368;11.068;2023-04-23T09:45:19;97043.91;;;19.41;61.63
3812;BME280;1921;49.368;11.068;2023-04-23T09:47:51;97028.44;;;19.54;60.60
3812;BME280;1921;49.368;11.068;2023-04-23T09:50:18;97076.28;;;19.75;57.54
3812;BME280;1921;49.368;11.068;2023-04-23T09:52:44;97044.75;;;19.24;59.93
3812;BME280;1921;49.368;11.068;2023-04-23T09:55:10;97049.53;;;19.49;60.14
3812;BME280;1921;49.368;11.068;2023-04-23T09:57:37;97044.59;;;19.80;60.21
3812;BME280;1921;49.368;11.068;2023-04-23T10:00:21;96996.22;;;19.57;55.56
3812;BME280;1921;49.368;11.068;2023-04-23T10:03:10;96768.38;;;17.70;56.45
3812;BME280;1921;49.368;11.068;2023-04-23T10:05:41;96827.94;;;17.66;59.07
3812;BME280;1921;49.368;11.068;2023-04-23T10:08:07;96913.78;;;17.73;59.22
3812;BME280;1921;49.368;11.068;2023-04-23T10:10:34;96906.31;;;17.70;61.58
3812;BME280;1921;49.368;11.068;2023-04-23T10:13:01;97003.94;;;18.38;60.98
3812;BME280;1921;49.368;11.068;2023-04-23T10:15:27;97019.16;;;18.86;60.63
3812;BME280;1921;49.368;11.068;2023-04-23T10:17:53;97007.34;;;18.89;60.54
3812;BME280;1921;49.368;11.068;2023-04-23T10:20:22;97008.00;;;19.23;60.70
3812;BME280;1921;49.368;11.068;2023-04-23T10:22:48;97005.34;;;19.45;58.34
3812;BME280;1921;49.368;11.068;2023-04-23T10:25:15;97036.13;;;19.78;57.77
3812;BME280;1921;49.368;11.068;2023-04-23T10:27:43;97074.09;;;19.94;56.08
3812;BME280;1921;49.368;11.068;2023-04-23T10:30:11;96998.38;;;19.60;57.57
3812;BME280;1921;49.368;11.068;2023-04-23T10:32:39;97017.28;;;19.74;56.77
3812;BME280;1921;49.368;11.068;2023-04-23T10:35:07;97038.56;;;20.16;54.84
3812;BME280;1921;49.368;11.068;2023-04-23T10:37:34;96891.72;;;19.28;54.22
3812;BME280;1921;49.368;11.068;2023-04-23T10:40:14;97025.34;;;20.16;54.88
3812;BME280;1921;49.368;11.068;2023-04-23T10:42:42;96966.84;;;19.86;55.87
3812;BME280;1921;49.368;11.068;2023-04-23T10:45:19;97043.09;;;20.90;53.24
3812;BME280;1921;49.368;11.068;2023-04-23T10:47:45;97003.22;;;21.28;51.89
3812;BME280;1921;49.368;11.068;2023-04-23T10:50:27;96994.88;;;21.87;49.61
3812;BME280;1921;49.368;11.068;2023-04-23T10:52:55;96948.69;;;22.13;47.69
3812;BME280;1921;49.368;11.068;2023-04-23T10:55:26;96965.16;;;22.10;46.77
3812;BME280;1921;49.368;11.068;2023-04-23T10:58:03;96990.59;;;22.62;45.97
3812;BME280;1921;49.368;11.068;2023-04-23T11:06:02;96972.09;;;24.00;42.51
3812;BME280;1921;49.368;11.068;2023-04-23T11:08:29;96981.06;;;24.09;41.73
3812;BME280;1921;49.368;11.068;2023-04-23T11:11:01;96976.28;;;23.72;42.35
3812;BME280;1921;49.368;11.068;2023-04-23T11:13:28;96931.47;;;23.01;44.06
3812;BME280;1921;49.368;11.068;2023-04-23T11:16:14;96922.31;;;23.67;42.58
3812;BME280;1921;49.368;11.068;2023-04-23T11:21:58;96977.03;;;23.83;42.09
3812;BME280;1921;49.368;11.068;2023-04-23T11:24:34;96993.22;;;23.92;41.66
3812;BME280;1921;49.368;11.068;2023-04-23T11:27:05;96928.78;;;23.50;42.88
3812;BME280;1921;49.368;11.068;2023-04-23T11:29:31;96944.03;;;24.13;41.67
3812;BME280;1921;49.368;11.068;2023-04-23T11:31:57;96964.25;;;24.72;40.67
3812;BME280;1921;49.368;11.068;2023-04-23T11:34:27;96971.31;;;25.48;38.11
3812;BME280;1921;49.368;11.068;2023-04-23T11:37:04;96600.59;;;23.02;36.93
3812;BME280;1921;49.368;11.068;2023-04-23T11:39:46;96948.22;;;24.19;37.71
3812;BME280;1921;49.368;11.068;2023-04-23T11:42:15;96827.91;;;23.49;39.94
3812;BME280;1921;49.368;11.068;2023-04-23T11:44:51;96507.22;;;21.82;39.82
3812;BME280;1921;49.368;11.068;2023-04-23T11:47:20;96714.69;;;23.32;39.10
3812;BME280;1921;49.368;11.068;2023-04-23T11:49:57;96698.03;;;23.75;37.35
3812;BME280;1921;49.368;11.068;2023-04-23T11:52:28;96890.31;;;24.96;36.96
3812;BME280;1921;49.368;11.068;2023-04-23T11:55:13;96879.91;;;25.19;37.45
3812;BME280;1921;49.368;11.068;2023-04-23T11:57:47;96878.25;;;25.23;36.34
3812;BME280;1921;49.368;11.068;2023-04-23T12:00:22;96952.13;;;25.84;36.55
3812;BME280;1921;49.368;11.068;2023-04-23T12:02:57;96903.06;;;25.42;36.88
3812;BME280;1921;49.368;11.068;2023-04-23T12:05:34;96790.16;;;24.48;37.34
3812;BME280;1921;49.368;11.068;2023-04-23T12:08:15;96837.47;;;24.37;38.55
3812;BME280;1921;49.368;11.068;2023-04-23T12:10:53;96901.66;;;24.64;38.61
3812;BME280;1921;49.368;11.068;2023-04-23T12:13:25;96866.94;;;24.46;38.73
3812;BME280;1921;49.368;11.068;2023-04-23T12:15:58;96829.22;;;23.85;38.82
3812;BME280;1921;49.368;11.068;2023-04-23T12:18:29;96833.16;;;24.17;38.93
3812;BME280;1921;49.368;11.068;2023-04-23T12:21:08;96859.56;;;24.61;38.82
3812;BME280;1921;49.368;11.068;2023-04-23T12:23:39;96891.78;;;25.08;38.25
3812;BME280;1921;49.368;11.068;2023-04-23T12:26:15;96843.88;;;24.36;38.59
3812;BME280;1921;49.368;11.068;2023-04-23T12:28:54;96858.38;;;24.25;38.61
3812;BME280;1921;49.368;11.068;2023-04-23T12:31:26;96872.66;;;24.10;39.04
3812;BME280;1921;49.368;11.068;2023-04-23T12:34:07;96801.88;;;23.41;40.06
3812;BME280;1921;49.368;11.068;2023-04-23T12:36:35;96881.50;;;24.05;40.26
3812;BME280;1921;49.368;11.068;2023-04-23T12:42:06;96855.53;;;23.53;40.15
3812;BME280;1921;49.368;11.068;2023-04-23T12:44:39;96880.47;;;23.28;41.26
3812;BME280;1921;49.368;11.068;2023-04-23T12:47:07;96896.28;;;23.09;41.66
3812;BME280;1921;49.368;11.068;2023-04-23T12:49:35;96866.69;;;22.71;42.51
3812;BME280;1921;49.368;11.068;2023-04-23T12:52:03;96873.06;;;22.70;42.49
3812;BME280;1921;49.368;11.068;2023-04-23T12:54:37;96898.69;;;22.46;42.89
3812;BME280;1921;49.368;11.068;2023-04-23T12:57:06;96776.91;;;21.93;43.41
3812;BME280;1921;49.368;11.068;2023-04-23T12:59:32;96866.88;;;22.90;42.71
3812;BME280;1921;49.368;11.068;2023-04-23T13:01:59;96837.47;;;23.16;41.56
3812;BME280;1921;49.368;11.068;2023-04-23T13:04:31;96838.22;;;23.21;41.75
3812;BME280;1921;49.368;11.068;2023-04-23T13:06:57;96825.97;;;23.25;40.70
3812;BME280;1921;49.368;11.068;2023-04-23T13:09:23;96839.16;;;23.75;39.94
3812;BME280;1921;49.368;11.068;2023-04-23T13:11:52;96848.59;;;24.15;38.55
3812;BME280;1921;49.368;11.068;2023-04-23T13:14:18;96793.69;;;24.19;38.11
3812;BME280;1921;49.368;11.068;2023-04-23T13:16:45;96777.34;;;24.50;37.24
3812;BME280;1921;49.368;11.068;2023-04-23T13:19:11;96823.25;;;24.84;37.52
3812;BME280;1921;49.368;11.068;2023-04-23T13:21:38;96811.88;;;24.60;38.11
3812;BME280;1921;49.368;11.068;2023-04-23T13:24:04;96805.88;;;24.25;37.48
3812;BME280;1921;49.368;11.068;2023-04-23T13:26:30;96666.28;;;23.01;38.80
3812;BME280;1921;49.368;11.068;2023-04-23T13:29:00;96751.41;;;22.57;40.06